createdAt,value
2023-01-19T00:00:53.995Z,55.96
2023-01-19T00:01:53.958Z,52.28
2023-01-19T00:02:54.049Z,55.42
2023-01-19T00:03:53.985Z,51.16
2023-01-19T00:04:53.951Z,54.26
2023-01-19T00:05:54.009Z,54.35
2023-01-19T00:06:53.939Z,54.78
2023-01-19T00:07:53.938Z,52.91
2023-01-19T00:08:53.927Z,54.20
2023-01-19T00:09:53.917Z,55.92
2023-01-19T00:10:53.927Z,53.11
2023-01-19T00:11:53.918Z,51.84
2023-01-19T00:12:53.909Z,53.05
2023-01-19T00:13:53.892Z,52.78
2023-01-19T00:14:53.890Z,53.69
2023-01-19T00:15:53.924Z,57.48
2023-01-19T00:16:53.876Z,54.18
2023-01-19T00:17:53.868Z,52.23
2023-01-19T00:18:53.878Z,53.07
2023-01-19T00:19:53.862Z,54.80
2023-01-19T00:20:53.872Z,50.51
2023-01-19T00:21:53.850Z,56.18
2023-01-19T00:22:53.849Z,53.00
2023-01-19T00:23:53.834Z,56.30
2023-01-19T00:24:53.831Z,52.29
2023-01-19T00:25:53.841Z,54.03
2023-01-19T00:26:53.818Z,55.85
2023-01-19T00:27:53.806Z,53.06
2023-01-19T00:28:53.799Z,54.15
2023-01-19T00:29:53.788Z,54.35
2023-01-19T00:30:53.795Z,53.69
2023-01-19T00:31:53.807Z,57.39
2023-01-19T00:32:53.773Z,54.57
2023-01-19T00:33:53.777Z,51.12
2023-01-19T00:34:53.759Z,51.20
2023-01-19T00:35:53.751Z,50.13
2023-01-19T00:36:53.758Z,55.57
2023-01-19T00:37:53.733Z,52.21
2023-01-19T00:38:53.727Z,52.75
2023-01-19T00:39:53.725Z,50.45
2023-01-19T00:40:53.724Z,55.16
2023-01-19T00:41:53.728Z,52.48
2023-01-19T00:42:53.714Z,52.62
2023-01-19T00:43:53.698Z,48.94
2023-01-19T00:44:53.691Z,51.04
2023-01-19T00:45:53.745Z,52.71
2023-01-19T00:46:53.707Z,55.49
2023-01-19T00:47:53.673Z,53.70
2023-01-19T00:48:53.657Z,53.18
2023-01-19T00:49:53.666Z,53.12
2023-01-19T00:50:53.654Z,50.59
2023-01-19T00:51:53.660Z,49.97
2023-01-19T00:52:53.653Z,49.49
2023-01-19T00:53:53.613Z,51.02
2023-01-19T00:54:53.631Z,52.68
2023-01-19T00:55:53.614Z,51.19
2023-01-19T00:56:53.606Z,52.96
2023-01-19T00:57:53.619Z,49.47
2023-01-19T00:58:53.597Z,52.20
2023-01-19T00:59:53.578Z,53.41
2023-01-19T01:00:53.697Z,53.40
2023-01-19T01:01:53.900Z,55.55
2023-01-19T01:02:53.712Z,51.91
2023-01-19T01:03:53.566Z,51.45
2023-01-19T01:04:53.562Z,53.89
2023-01-19T01:05:53.559Z,51.32
2023-01-19T01:06:53.533Z,55.33
2023-01-19T01:07:53.559Z,55.91
2023-01-19T01:08:53.534Z,51.92
2023-01-19T01:09:53.542Z,51.42
2023-01-19T01:10:53.522Z,51.98
2023-01-19T01:11:53.509Z,55.24
2023-01-19T01:12:57.313Z,53.03
2023-01-19T01:13:53.510Z,51.20
2023-01-19T01:14:53.495Z,53.17
2023-01-19T01:15:53.519Z,53.43
2023-01-19T01:16:53.584Z,52.92
2023-01-19T01:17:53.477Z,54.65
2023-01-19T01:18:53.489Z,52.86
2023-01-19T01:19:53.461Z,53.22
2023-01-19T01:20:55.331Z,54.36
2023-01-19T01:21:53.437Z,55.26
2023-01-19T01:22:53.445Z,51.63
2023-01-19T01:23:53.445Z,51.81
2023-01-19T01:24:53.420Z,53.73
2023-01-19T01:25:53.434Z,50.40
2023-01-19T01:26:53.410Z,51.16
2023-01-19T01:27:53.403Z,49.84
2023-01-19T01:28:53.409Z,53.85
2023-01-19T01:29:53.396Z,55.09
2023-01-19T01:30:53.380Z,50.07
2023-01-19T01:31:53.423Z,50.53
2023-01-19T01:32:53.368Z,54.47
2023-01-19T01:33:53.382Z,54.46
2023-01-19T01:34:53.351Z,50.48
2023-01-19T01:35:53.333Z,53.79
2023-01-19T01:36:53.341Z,55.50
2023-01-19T01:37:53.343Z,54.19
2023-01-19T01:38:53.332Z,53.30
2023-01-19T01:39:53.328Z,52.69
2023-01-19T01:40:53.334Z,54.62
2023-01-19T01:41:54.016Z,51.18
2023-01-19T01:42:53.297Z,48.31
2023-01-19T01:43:53.308Z,49.16
2023-01-19T01:44:53.291Z,55.27
2023-01-19T01:45:53.374Z,55.77
2023-01-19T01:46:53.276Z,54.06
2023-01-19T01:47:53.266Z,51.89
2023-01-19T01:48:53.282Z,56.51
2023-01-19T01:49:53.289Z,53.88
2023-01-19T01:50:53.251Z,51.95
2023-01-19T01:51:53.256Z,53.37
2023-01-19T01:53:03.853Z,55.05
2023-01-19T01:53:54.258Z,56.89
2023-01-19T01:54:53.239Z,53.72
2023-01-19T01:55:53.245Z,54.91
2023-01-19T01:56:53.218Z,52.79
2023-01-19T01:57:53.205Z,48.43
2023-01-19T01:58:53.194Z,48.85
2023-01-19T01:59:53.192Z,54.19
2023-01-19T02:00:54.399Z,54.20
2023-01-19T02:01:53.240Z,53.66
2023-01-19T02:02:53.223Z,54.98
2023-01-19T02:03:53.165Z,54.86
2023-01-19T02:04:53.170Z,51.26
2023-01-19T02:05:53.167Z,50.63
2023-01-19T02:06:53.169Z,54.29
2023-01-19T02:07:53.144Z,55.07
2023-01-19T02:08:53.137Z,56.29
2023-01-19T02:09:53.132Z,53.48
2023-01-19T02:10:53.125Z,56.57
2023-01-19T02:11:53.116Z,55.11
2023-01-19T02:12:53.113Z,54.75
2023-01-19T02:13:53.125Z,53.53
2023-01-19T02:14:53.094Z,49.31
2023-01-19T02:15:53.085Z,53.26
2023-01-19T02:16:53.119Z,54.86
2023-01-19T02:17:53.076Z,52.52
2023-01-19T02:18:53.069Z,48.55
2023-01-19T02:19:53.051Z,53.41
2023-01-19T02:20:53.048Z,53.33
2023-01-19T02:21:53.046Z,51.48
2023-01-19T02:22:53.045Z,55.59
2023-01-19T02:23:53.040Z,55.81
2023-01-19T02:24:53.020Z,50.11
2023-01-19T02:25:53.021Z,49.30
2023-01-19T02:26:53.014Z,54.23
2023-01-19T02:27:53.017Z,55.31
2023-01-19T02:28:53.001Z,52.93
2023-01-19T02:29:52.995Z,55.07
2023-01-19T02:30:53.027Z,52.63
2023-01-19T02:31:52.993Z,50.94
2023-01-19T02:32:52.981Z,51.74
2023-01-19T02:33:52.968Z,53.08
2023-01-19T02:34:52.956Z,55.78
2023-01-19T02:35:52.955Z,53.25
2023-01-19T02:36:52.975Z,50.96
2023-01-19T02:37:52.938Z,51.12
2023-01-19T02:38:52.945Z,53.51
2023-01-19T02:39:52.933Z,51.14
2023-01-19T02:40:52.926Z,54.02
2023-01-19T02:41:52.910Z,53.86
2023-01-19T02:42:52.925Z,53.96
2023-01-19T02:43:52.917Z,54.64
2023-01-19T02:44:52.891Z,55.13
2023-01-19T02:45:52.920Z,52.21
2023-01-19T02:46:52.876Z,51.30
2023-01-19T02:47:52.881Z,55.51
2023-01-19T02:48:52.890Z,51.85
2023-01-19T02:49:52.879Z,56.46
2023-01-19T02:50:52.852Z,52.73
2023-01-19T02:51:52.859Z,49.94
2023-01-19T02:52:52.841Z,51.05
2023-01-19T02:53:52.836Z,54.50
2023-01-19T02:54:52.841Z,53.08
2023-01-19T02:55:52.823Z,53.24
2023-01-19T02:56:52.821Z,50.05
2023-01-19T02:57:52.809Z,55.00
2023-01-19T02:58:52.809Z,55.48
2023-01-19T02:59:52.796Z,55.96
2023-01-19T03:00:52.848Z,53.48
2023-01-19T03:01:52.863Z,53.34
2023-01-19T03:02:52.829Z,54.79
2023-01-19T03:03:52.773Z,49.98
2023-01-19T03:04:52.772Z,57.64
2023-01-19T03:05:52.770Z,56.36
2023-01-19T03:06:52.757Z,53.36
2023-01-19T03:07:52.789Z,53.54
2023-01-19T03:08:52.776Z,51.08
2023-01-19T03:09:52.745Z,55.60
2023-01-19T03:10:52.749Z,56.12
2023-01-19T03:11:52.725Z,55.96
2023-01-19T03:12:52.721Z,52.33
2023-01-19T03:13:52.726Z,55.82
2023-01-19T03:14:52.685Z,52.09
2023-01-19T03:15:52.932Z,55.16
2023-01-19T03:16:52.739Z,54.19
2023-01-19T03:17:52.686Z,54.56
2023-01-19T03:18:52.672Z,55.45
2023-01-19T03:19:52.658Z,55.07
2023-01-19T03:20:52.666Z,52.59
2023-01-19T03:21:52.651Z,53.98
2023-01-19T03:22:52.638Z,57.03
2023-01-19T03:23:52.640Z,55.69
2023-01-19T03:24:52.642Z,55.78
2023-01-19T03:25:52.624Z,55.76
2023-01-19T03:26:52.620Z,54.28
2023-01-19T03:27:52.611Z,56.52
2023-01-19T03:28:52.611Z,57.01
2023-01-19T03:29:52.598Z,53.40
2023-01-19T03:30:52.602Z,52.15
2023-01-19T03:31:52.591Z,50.37
2023-01-19T03:32:52.580Z,56.27
2023-01-19T03:33:52.572Z,52.69
2023-01-19T03:34:52.579Z,56.04
2023-01-19T03:35:52.546Z,54.75
2023-01-19T03:36:52.559Z,58.40
2023-01-19T03:37:52.539Z,57.03
2023-01-19T03:38:52.529Z,55.23
2023-01-19T03:39:52.548Z,56.49
2023-01-19T03:40:52.522Z,52.80
2023-01-19T03:41:52.507Z,56.47
2023-01-19T03:42:52.522Z,58.23
2023-01-19T03:43:52.495Z,55.48
2023-01-19T03:44:52.496Z,54.63
2023-01-19T03:45:52.528Z,54.70
2023-01-19T03:46:52.480Z,53.69
2023-01-19T03:47:52.472Z,58.37
2023-01-19T03:48:52.463Z,54.52
2023-01-19T03:49:52.469Z,57.11
2023-01-19T03:50:52.452Z,56.86
2023-01-19T03:51:52.460Z,55.92
2023-01-19T03:52:52.542Z,58.53
2023-01-19T03:53:52.450Z,57.65
2023-01-19T03:54:52.414Z,55.42
2023-01-19T03:55:52.446Z,53.95
2023-01-19T03:56:52.459Z,56.26
2023-01-19T03:57:52.409Z,58.50
2023-01-19T03:58:52.400Z,58.68
2023-01-19T03:59:52.386Z,58.28
2023-01-19T04:00:52.402Z,59.17
2023-01-19T04:01:52.458Z,56.42
2023-01-19T04:02:52.450Z,56.27
2023-01-19T04:03:52.371Z,55.38
2023-01-19T04:04:52.358Z,56.96
2023-01-19T04:05:52.345Z,59.24
2023-01-19T04:06:52.351Z,56.89
2023-01-19T04:07:52.359Z,57.90
2023-01-19T04:08:52.344Z,59.70
2023-01-19T04:09:52.327Z,58.50
2023-01-19T04:10:52.333Z,55.13
2023-01-19T04:11:52.339Z,59.12
2023-01-19T04:12:52.331Z,57.21
2023-01-19T04:13:52.318Z,59.55
2023-01-19T04:14:52.287Z,58.55
2023-01-19T04:15:52.304Z,60.75
2023-01-19T04:16:52.278Z,59.91
2023-01-19T04:17:52.286Z,59.00
2023-01-19T04:18:52.262Z,58.54
2023-01-19T04:19:52.261Z,59.14
2023-01-19T04:20:52.246Z,60.48
2023-01-19T04:21:52.246Z,62.88
2023-01-19T04:22:52.224Z,61.94
2023-01-19T04:23:52.231Z,62.21
2023-01-19T04:24:52.215Z,60.79
2023-01-19T04:25:52.206Z,58.88
2023-01-19T04:26:52.205Z,61.62
2023-01-19T04:27:52.199Z,59.88
2023-01-19T04:28:52.188Z,61.34
2023-01-19T04:29:52.194Z,61.69
2023-01-19T04:30:52.251Z,61.37
2023-01-19T04:31:52.173Z,59.50
2023-01-19T04:32:52.165Z,61.88
2023-01-19T04:33:52.178Z,61.94
2023-01-19T04:34:52.151Z,61.71
2023-01-19T04:35:54.206Z,60.69
2023-01-19T04:36:53.142Z,62.00
2023-01-19T04:37:52.180Z,60.08
2023-01-19T04:38:52.126Z,60.21
2023-01-19T04:39:52.122Z,62.19
2023-01-19T04:40:52.111Z,62.94
2023-01-19T04:41:52.104Z,61.30
2023-01-19T04:42:52.106Z,61.19
2023-01-19T04:43:52.099Z,62.07
2023-01-19T04:44:52.099Z,61.49
2023-01-19T04:45:52.078Z,62.59
2023-01-19T04:46:52.072Z,61.73
2023-01-19T04:47:52.070Z,61.36
2023-01-19T04:48:52.059Z,61.58
2023-01-19T04:49:52.072Z,62.49
2023-01-19T04:50:52.043Z,61.97
2023-01-19T04:51:52.044Z,61.70
2023-01-19T04:52:52.040Z,63.19
2023-01-19T04:53:52.022Z,62.33
2023-01-19T04:54:52.018Z,60.89
2023-01-19T04:55:52.017Z,62.70
2023-01-19T04:56:51.999Z,60.47
2023-01-19T04:57:51.997Z,61.40
2023-01-19T04:58:51.997Z,60.31
2023-01-19T04:59:52.986Z,60.61
2023-01-19T05:00:52.017Z,60.63
2023-01-19T05:01:52.040Z,60.93
2023-01-19T05:02:52.003Z,60.61
2023-01-19T05:03:51.987Z,61.29
2023-01-19T05:04:51.963Z,61.03
2023-01-19T05:05:51.952Z,61.61
2023-01-19T05:06:51.949Z,61.14
2023-01-19T05:07:51.938Z,60.12
2023-01-19T05:08:51.932Z,62.43
2023-01-19T05:09:51.924Z,60.59
2023-01-19T05:10:51.968Z,62.03
2023-01-19T05:11:51.915Z,62.98
2023-01-19T05:12:51.897Z,64.68
2023-01-19T05:13:51.902Z,63.37
2023-01-19T05:14:51.885Z,62.24
2023-01-19T05:15:51.897Z,63.79
2023-01-19T05:16:51.934Z,61.69
2023-01-19T05:17:51.866Z,62.52
2023-01-19T05:18:51.859Z,61.76
2023-01-19T05:19:51.890Z,62.84
2023-01-19T05:20:51.850Z,63.25
2023-01-19T05:21:51.899Z,61.61
2023-01-19T05:22:51.847Z,61.02
2023-01-19T05:23:51.829Z,63.82
2023-01-19T05:24:51.833Z,61.32
2023-01-19T05:25:51.808Z,63.16
2023-01-19T05:26:51.838Z,63.15
2023-01-19T05:27:51.817Z,62.13
2023-01-19T05:28:51.817Z,63.19
2023-01-19T05:29:51.790Z,62.08
2023-01-19T05:30:51.862Z,63.17
2023-01-19T05:31:51.808Z,63.16
2023-01-19T05:32:51.781Z,63.86
2023-01-19T05:33:51.786Z,62.72
2023-01-19T05:34:51.771Z,63.33
2023-01-19T05:35:51.762Z,65.37
2023-01-19T05:36:51.789Z,63.47
2023-01-19T05:37:51.752Z,62.53
2023-01-19T05:38:51.733Z,62.56
2023-01-19T05:39:51.726Z,63.26
2023-01-19T05:40:51.710Z,63.48
2023-01-19T05:41:51.733Z,62.99
2023-01-19T05:42:51.698Z,64.96
2023-01-19T05:43:51.704Z,62.85
2023-01-19T05:44:51.690Z,62.56
2023-01-19T05:45:51.690Z,64.05
2023-01-19T05:46:51.760Z,63.52
2023-01-19T05:47:51.697Z,62.16
2023-01-19T05:48:51.688Z,62.69
2023-01-19T05:49:51.653Z,64.16
2023-01-19T05:50:51.657Z,63.42
2023-01-19T05:51:51.650Z,63.43
2023-01-19T05:52:51.630Z,63.11
2023-01-19T05:53:51.626Z,62.58
2023-01-19T05:54:51.630Z,62.98
2023-01-19T05:55:51.605Z,61.93
2023-01-19T05:56:51.601Z,63.04
2023-01-19T05:57:51.623Z,62.95
2023-01-19T05:58:51.589Z,60.88
2023-01-19T05:59:51.589Z,62.38
2023-01-19T06:00:51.625Z,62.34
2023-01-19T06:01:51.623Z,61.53
2023-01-19T06:02:51.613Z,63.49
2023-01-19T06:03:51.566Z,64.07
2023-01-19T06:04:51.553Z,62.81
2023-01-19T06:05:51.562Z,64.30
2023-01-19T06:06:51.554Z,62.92
2023-01-19T06:07:51.534Z,63.28
2023-01-19T06:08:51.530Z,62.64
2023-01-19T06:09:51.515Z,62.14
2023-01-19T06:10:51.517Z,63.74
2023-01-19T06:11:51.501Z,63.30
2023-01-19T06:12:51.517Z,63.50
2023-01-19T06:13:51.487Z,62.85
2023-01-19T06:14:51.489Z,63.59
2023-01-19T06:15:51.481Z,63.75
2023-01-19T06:16:51.472Z,62.64
2023-01-19T06:17:51.595Z,62.89
2023-01-19T06:18:51.466Z,62.38
2023-01-19T06:19:51.447Z,62.47
2023-01-19T06:20:51.446Z,63.23
2023-01-19T06:21:51.442Z,62.13
2023-01-19T06:22:51.449Z,62.46
2023-01-19T06:23:51.430Z,63.96
2023-01-19T06:24:51.420Z,62.73
2023-01-19T06:25:51.410Z,64.52
2023-01-19T06:26:51.408Z,63.01
2023-01-19T06:27:51.394Z,63.65
2023-01-19T06:28:51.426Z,63.76
2023-01-19T06:29:51.382Z,63.97
2023-01-19T06:30:51.469Z,63.30
2023-01-19T06:31:51.471Z,63.79
2023-01-19T06:32:51.390Z,62.97
2023-01-19T06:33:51.393Z,63.12
2023-01-19T06:34:53.324Z,62.61
2023-01-19T06:35:51.345Z,62.50
2023-01-19T06:36:51.336Z,63.85
2023-01-19T06:37:51.338Z,64.70
2023-01-19T06:38:51.330Z,63.53
2023-01-19T06:39:51.334Z,62.30
2023-01-19T06:40:51.310Z,62.65
2023-01-19T06:41:51.313Z,63.38
2023-01-19T06:42:51.305Z,62.76
2023-01-19T06:43:51.285Z,64.62
2023-01-19T06:44:51.308Z,63.55
2023-01-19T06:45:51.361Z,63.84
2023-01-19T06:46:51.276Z,63.86
2023-01-19T06:47:52.305Z,63.35
2023-01-19T06:48:51.265Z,63.21
2023-01-19T06:49:51.265Z,62.56
2023-01-19T06:50:51.268Z,63.90
2023-01-19T06:51:51.246Z,64.52
2023-01-19T06:52:51.242Z,62.98
2023-01-19T06:53:51.244Z,62.81
2023-01-19T06:54:51.236Z,63.70
2023-01-19T06:55:51.217Z,64.37
2023-01-19T06:56:51.213Z,63.76
2023-01-19T06:57:51.212Z,60.79
2023-01-19T06:58:51.198Z,61.05
2023-01-19T06:59:51.185Z,62.72
2023-01-19T07:00:51.306Z,63.37
2023-01-19T07:01:51.243Z,63.82
2023-01-19T07:02:51.201Z,62.87
2023-01-19T07:03:51.169Z,61.72
2023-01-19T07:04:51.151Z,62.69
2023-01-19T07:05:51.145Z,63.46
2023-01-19T07:06:51.142Z,63.53
2023-01-19T07:07:51.149Z,63.84
2023-01-19T07:08:51.133Z,61.98
2023-01-19T07:09:53.832Z,61.76
2023-01-19T07:11:25.850Z,61.94
2023-01-19T07:11:52.110Z,64.38
2023-01-19T07:12:51.138Z,63.80
2023-01-19T07:13:51.085Z,64.43
2023-01-19T07:14:52.102Z,63.46
2023-01-19T07:15:51.084Z,62.91
2023-01-19T07:16:51.082Z,64.70
2023-01-19T07:17:51.093Z,63.52
2023-01-19T07:18:51.078Z,63.43
2023-01-19T07:19:51.056Z,64.73
2023-01-19T07:20:51.042Z,63.58
2023-01-19T07:21:51.057Z,63.68
2023-01-19T07:22:51.044Z,64.12
2023-01-19T07:23:51.047Z,64.30
2023-01-19T07:24:51.037Z,62.70
2023-01-19T07:25:51.022Z,63.62
2023-01-19T07:26:51.013Z,63.35
2023-01-19T07:27:51.005Z,62.79
2023-01-19T07:28:50.990Z,62.41
2023-01-19T07:29:51.997Z,62.64
2023-01-19T07:30:51.064Z,62.83
2023-01-19T07:31:51.053Z,64.00
2023-01-19T07:32:50.961Z,63.79
2023-01-19T07:33:50.960Z,63.06
2023-01-19T07:34:50.966Z,64.19
2023-01-19T07:35:50.952Z,64.29
2023-01-19T07:36:50.941Z,63.54
2023-01-19T07:37:50.954Z,61.81
2023-01-19T07:38:50.930Z,61.58
2023-01-19T07:39:50.945Z,60.91
2023-01-19T07:40:50.918Z,63.05
2023-01-19T07:41:50.918Z,61.14
2023-01-19T07:42:50.910Z,62.56
2023-01-19T07:43:50.888Z,61.20
2023-01-19T07:44:50.915Z,60.93
2023-01-19T07:45:51.000Z,61.50
2023-01-19T07:46:50.887Z,65.06
2023-01-19T07:47:50.869Z,61.60
2023-01-19T07:48:50.874Z,62.85
2023-01-19T07:49:50.864Z,63.60
2023-01-19T07:50:50.865Z,62.34
2023-01-19T07:51:50.837Z,62.18
2023-01-19T07:52:50.851Z,64.34
2023-01-19T07:53:50.901Z,62.91
2023-01-19T07:54:50.844Z,60.89
2023-01-19T07:55:50.830Z,64.17
2023-01-19T07:56:50.821Z,62.29
2023-01-19T07:57:50.807Z,63.46
2023-01-19T07:58:50.807Z,63.05
2023-01-19T07:59:50.797Z,60.89
2023-01-19T08:00:50.840Z,61.85
2023-01-19T08:01:50.970Z,62.55
2023-01-19T08:02:50.773Z,63.21
2023-01-19T08:03:50.816Z,63.13
2023-01-19T08:04:50.832Z,61.68
2023-01-19T08:05:50.768Z,60.00
2023-01-19T08:06:50.758Z,63.24
2023-01-19T08:07:53.245Z,60.93
2023-01-19T08:08:50.735Z,62.51
2023-01-19T08:09:50.729Z,63.19
2023-01-19T08:10:50.768Z,62.63
2023-01-19T08:11:50.719Z,62.45
2023-01-19T08:12:50.733Z,60.40
2023-01-19T08:13:50.716Z,60.74
2023-01-19T08:14:50.706Z,60.79
2023-01-19T08:15:50.803Z,62.10
2023-01-19T08:16:50.677Z,62.76
2023-01-19T08:17:50.693Z,61.64
2023-01-19T08:18:50.677Z,61.50
2023-01-19T08:19:50.688Z,62.43
2023-01-19T08:20:50.669Z,61.96
2023-01-19T08:21:50.656Z,63.77
2023-01-19T08:22:50.666Z,62.37
2023-01-19T08:23:50.696Z,62.38
2023-01-19T08:24:50.658Z,62.15
2023-01-19T08:25:50.630Z,62.78
2023-01-19T08:26:50.620Z,61.78
2023-01-19T08:27:50.617Z,62.21
2023-01-19T08:28:50.625Z,63.34
2023-01-19T08:29:50.598Z,61.40
2023-01-19T08:30:50.703Z,61.91
2023-01-19T08:31:50.649Z,62.11
2023-01-19T08:32:50.580Z,61.91
2023-01-19T08:33:50.595Z,61.45
2023-01-19T08:34:50.581Z,61.54
2023-01-19T08:35:50.556Z,63.40
2023-01-19T08:36:50.562Z,64.15
2023-01-19T08:37:50.538Z,63.29
2023-01-19T08:38:51.556Z,62.37
2023-01-19T08:39:50.528Z,63.98
2023-01-19T08:40:50.519Z,63.49
2023-01-19T08:41:50.524Z,63.41
2023-01-19T08:42:50.532Z,60.80
2023-01-19T08:43:50.512Z,61.99
2023-01-19T08:44:58.116Z,62.18
2023-01-19T08:45:52.500Z,62.12
2023-01-19T08:46:50.503Z,64.87
2023-01-19T08:47:50.512Z,64.30
2023-01-19T08:48:50.651Z,62.85
2023-01-19T08:49:50.485Z,62.22
2023-01-19T08:50:50.481Z,62.33
2023-01-19T08:51:50.474Z,62.85
2023-01-19T08:52:50.455Z,61.49
2023-01-19T08:53:50.486Z,62.42
2023-01-19T08:54:50.458Z,61.99
2023-01-19T08:55:50.461Z,62.85
2023-01-19T08:56:50.433Z,60.80
2023-01-19T08:57:50.426Z,61.80
2023-01-19T08:59:03.511Z,61.68
2023-01-19T08:59:52.416Z,61.69
2023-01-19T09:00:50.475Z,61.09
2023-01-19T09:01:50.550Z,63.07
2023-01-19T09:02:50.491Z,61.82
2023-01-19T09:03:50.381Z,60.56
2023-01-19T09:04:50.395Z,62.69
2023-01-19T09:05:50.411Z,61.94
2023-01-19T09:06:50.360Z,61.71
2023-01-19T09:07:50.364Z,61.46
2023-01-19T09:08:51.365Z,62.53
2023-01-19T09:09:50.348Z,59.31
2023-01-19T09:10:50.345Z,61.63
2023-01-19T09:11:50.323Z,63.49
2023-01-19T09:12:50.333Z,60.58
2023-01-19T09:13:50.336Z,62.92
2023-01-19T09:14:50.325Z,59.54
2023-01-19T09:15:50.338Z,60.03
2023-01-19T09:16:50.313Z,61.68
2023-01-19T09:17:50.296Z,62.19
2023-01-19T09:18:50.283Z,61.65
2023-01-19T09:19:50.283Z,59.83
2023-01-19T09:20:50.282Z,61.00
2023-01-19T09:21:50.288Z,60.59
2023-01-19T09:22:50.265Z,61.13
2023-01-19T09:23:50.255Z,60.07
2023-01-19T09:24:50.239Z,61.47
2023-01-19T09:25:50.243Z,61.89
2023-01-19T09:26:50.248Z,61.59
2023-01-19T09:27:50.265Z,62.33
2023-01-19T09:28:50.243Z,60.80
2023-01-19T09:29:50.227Z,61.80
2023-01-19T09:30:50.343Z,61.88
2023-01-19T09:31:50.255Z,61.07
2023-01-19T09:32:50.208Z,62.41
2023-01-19T09:33:50.208Z,61.04
2023-01-19T09:34:50.192Z,61.18
2023-01-19T09:35:50.202Z,61.72
2023-01-19T09:36:50.183Z,61.90
2023-01-19T09:37:50.183Z,62.06
2023-01-19T09:38:50.178Z,60.85
2023-01-19T09:39:50.276Z,59.94
2023-01-19T09:40:50.160Z,61.22
2023-01-19T09:41:50.179Z,60.01
2023-01-19T09:42:50.152Z,59.76
2023-01-19T09:43:50.137Z,61.22
2023-01-19T09:44:50.132Z,61.27
2023-01-19T09:45:50.163Z,60.38
2023-01-19T09:46:50.186Z,58.64
2023-01-19T09:47:50.117Z,60.83
2023-01-19T09:48:50.294Z,61.45
2023-01-19T09:49:50.093Z,59.62
2023-01-19T09:50:50.088Z,60.28
2023-01-19T09:51:50.087Z,59.27
2023-01-19T09:52:50.067Z,63.60
2023-01-19T09:53:50.079Z,62.24
2023-01-19T09:54:50.084Z,61.17
2023-01-19T09:55:50.063Z,60.85
2023-01-19T09:56:52.652Z,62.46
2023-01-19T09:57:51.042Z,60.89
2023-01-19T09:58:50.056Z,62.36
2023-01-19T09:59:50.041Z,62.49
2023-01-19T10:00:50.142Z,60.90
2023-01-19T10:01:50.075Z,61.46
2023-01-19T10:02:50.075Z,61.02
2023-01-19T10:03:51.021Z,62.76
2023-01-19T10:04:50.020Z,61.29
2023-01-19T10:05:50.021Z,61.20
2023-01-19T10:06:49.990Z,61.85
2023-01-19T10:07:49.988Z,65.39
2023-01-19T10:08:49.991Z,62.80
2023-01-19T10:09:49.984Z,63.40
2023-01-19T10:10:49.977Z,61.86
2023-01-19T10:11:53.559Z,61.81
2023-01-19T10:12:51.015Z,63.95
2023-01-19T10:13:49.980Z,61.30
2023-01-19T10:14:49.933Z,61.78
2023-01-19T10:15:49.948Z,62.13
2023-01-19T10:16:49.932Z,63.29
2023-01-19T10:17:49.931Z,62.82
2023-01-19T10:18:49.923Z,61.51
2023-01-19T10:19:49.907Z,61.08
2023-01-19T10:20:49.921Z,62.71
2023-01-19T10:21:49.905Z,61.95
2023-01-19T10:22:49.896Z,62.15
2023-01-19T10:23:49.897Z,63.02
2023-01-19T10:24:49.891Z,62.33
2023-01-19T10:25:49.924Z,61.23
2023-01-19T10:26:49.889Z,63.35
2023-01-19T10:27:49.881Z,60.85
2023-01-19T10:28:49.859Z,61.56
2023-01-19T10:29:49.888Z,62.34
2023-01-19T10:30:49.848Z,63.55
2023-01-19T10:31:49.887Z,61.31
2023-01-19T10:32:49.826Z,59.72
2023-01-19T10:33:49.821Z,60.79
2023-01-19T10:34:49.827Z,62.01
2023-01-19T10:35:49.812Z,59.99
2023-01-19T10:36:49.881Z,60.92
2023-01-19T10:37:49.793Z,61.77
2023-01-19T10:38:49.816Z,63.24
2023-01-19T10:39:49.816Z,63.93
2023-01-19T10:40:49.785Z,63.33
2023-01-19T10:41:49.788Z,61.71
2023-01-19T10:42:49.884Z,60.83
2023-01-19T10:43:49.770Z,61.70
2023-01-19T10:44:49.826Z,62.23
2023-01-19T10:45:49.775Z,64.12
2023-01-19T10:46:49.745Z,61.17
2023-01-19T10:47:49.765Z,62.81
2023-01-19T10:48:49.745Z,60.93
2023-01-19T10:49:49.717Z,58.53
2023-01-19T10:50:49.715Z,62.63
2023-01-19T10:51:49.770Z,60.46
2023-01-19T10:52:49.717Z,62.06
2023-01-19T10:53:49.694Z,61.63
2023-01-19T10:54:49.742Z,61.87
2023-01-19T10:55:49.673Z,62.60
2023-01-19T10:56:50.700Z,61.81
2023-01-19T10:57:49.672Z,62.53
2023-01-19T10:58:49.691Z,61.48
2023-01-19T10:59:49.653Z,62.42
2023-01-19T11:00:49.731Z,62.94
2023-01-19T11:01:49.795Z,61.65
2023-01-19T11:02:49.717Z,62.01
2023-01-19T11:03:49.713Z,63.35
2023-01-19T11:04:50.191Z,63.26
2023-01-19T11:05:50.706Z,60.60
2023-01-19T11:06:49.625Z,62.28
2023-01-19T11:07:49.616Z,63.27
2023-01-19T11:08:49.623Z,61.84
2023-01-19T11:09:49.648Z,59.12
2023-01-19T11:10:49.582Z,61.43
2023-01-19T11:11:49.579Z,60.87
2023-01-19T11:12:49.579Z,61.00
2023-01-19T11:13:49.575Z,62.98
2023-01-19T11:14:49.584Z,62.72
2023-01-19T11:15:49.571Z,62.60
2023-01-19T11:16:49.593Z,62.88
2023-01-19T11:17:49.542Z,62.46
2023-01-19T11:18:49.544Z,61.44
2023-01-19T11:19:49.541Z,60.43
2023-01-19T11:20:49.533Z,60.67
2023-01-19T11:21:49.520Z,63.49
2023-01-19T11:22:49.507Z,61.41
2023-01-19T11:23:49.519Z,61.19
2023-01-19T11:24:49.507Z,63.51
2023-01-19T11:25:49.520Z,63.57
2023-01-19T11:26:49.511Z,64.81
2023-01-19T11:27:49.490Z,61.31
2023-01-19T11:28:49.481Z,61.40
2023-01-19T11:29:49.466Z,62.75
2023-01-19T11:30:49.521Z,61.18
2023-01-19T11:31:49.610Z,61.68
2023-01-19T11:32:49.472Z,60.21
2023-01-19T11:33:50.791Z,62.40
2023-01-19T11:34:50.452Z,60.14
2023-01-19T11:35:49.444Z,61.30
2023-01-19T11:36:49.434Z,63.04
2023-01-19T11:37:49.429Z,62.92
2023-01-19T11:38:49.404Z,61.43
2023-01-19T11:39:49.417Z,63.55
2023-01-19T11:40:49.412Z,64.90
2023-01-19T11:41:49.391Z,62.18
2023-01-19T11:42:49.387Z,62.05
2023-01-19T11:43:49.687Z,62.61
2023-01-19T11:44:49.386Z,62.87
2023-01-19T11:45:49.408Z,60.80
2023-01-19T11:46:50.189Z,62.02
2023-01-19T11:47:50.359Z,62.35
2023-01-19T11:48:49.354Z,60.01
2023-01-19T11:49:49.347Z,62.68
2023-01-19T11:50:49.363Z,62.42
2023-01-19T11:51:49.351Z,62.99
2023-01-19T11:52:49.336Z,62.41
2023-01-19T11:53:49.322Z,62.51
2023-01-19T11:54:49.334Z,62.12
2023-01-19T11:55:49.312Z,63.68
2023-01-19T11:56:49.330Z,61.92
2023-01-19T11:57:49.300Z,63.29
2023-01-19T11:58:49.294Z,62.40
2023-01-19T11:59:51.944Z,62.77
2023-01-19T12:00:49.290Z,60.15
2023-01-19T12:01:49.430Z,61.56
2023-01-19T12:02:49.281Z,62.91
2023-01-19T12:03:49.266Z,63.18
2023-01-19T12:04:49.254Z,62.69
2023-01-19T12:05:49.244Z,61.42
2023-01-19T12:06:49.225Z,60.58
2023-01-19T12:07:49.333Z,63.72
2023-01-19T12:08:49.235Z,64.06
2023-01-19T12:09:49.222Z,63.95
2023-01-19T12:10:49.218Z,63.38
2023-01-19T12:11:49.215Z,62.17
2023-01-19T12:12:49.221Z,62.15
2023-01-19T12:13:49.242Z,63.39
2023-01-19T12:14:49.182Z,62.99
2023-01-19T12:15:49.178Z,62.36
2023-01-19T12:16:49.231Z,64.33
2023-01-19T12:17:49.204Z,63.64
2023-01-19T12:18:49.155Z,63.92
2023-01-19T12:19:49.154Z,63.73
2023-01-19T12:20:49.152Z,65.62
2023-01-19T12:21:49.135Z,62.78
2023-01-19T12:22:49.139Z,62.54
2023-01-19T12:23:49.145Z,62.68
2023-01-19T12:24:49.139Z,61.79
2023-01-19T12:25:49.111Z,62.41
2023-01-19T12:26:49.106Z,63.40
2023-01-19T12:27:49.134Z,63.26
2023-01-19T12:28:49.095Z,65.24
2023-01-19T12:29:49.098Z,62.95
2023-01-19T12:30:49.158Z,64.01
2023-01-19T12:31:51.709Z,63.47
2023-01-19T12:32:50.083Z,66.60
2023-01-19T12:33:49.089Z,62.72
2023-01-19T12:34:49.074Z,64.06
2023-01-19T12:35:49.064Z,61.86
2023-01-19T12:36:49.048Z,61.46
2023-01-19T12:37:49.037Z,60.79
2023-01-19T12:38:49.050Z,62.19
2023-01-19T12:39:49.030Z,62.61
2023-01-19T12:40:49.015Z,61.77
2023-01-19T12:41:49.024Z,60.06
2023-01-19T12:42:49.067Z,60.74
2023-01-19T12:43:48.996Z,63.91
2023-01-19T12:44:48.990Z,62.56
2023-01-19T12:45:49.041Z,60.81
2023-01-19T12:46:48.980Z,62.02
2023-01-19T12:47:53.070Z,59.13
2023-01-19T12:48:49.976Z,61.55
2023-01-19T12:49:49.034Z,61.18
2023-01-19T12:50:48.987Z,59.28
2023-01-19T12:51:48.958Z,61.84
2023-01-19T12:52:48.938Z,60.42